Time;durP1;ratioP1;P1;durP2;ratioP2;P2;SDS_P1;SDS_P2;PMS_P1;PMS_P2;Temp;Humidity;BMP_temperature;BMP_pressure;BME280_temperature;BME280_humidity;BME280_pressure;Samples;Min_cycle;Max_cycle;Signal;HPM_P1;HPM_P2
2024/02/20 00:01:29;;;;;;;;;;;256.50;2252.80;;;;;;4939584;29;19915;-79
2024/02/20 00:03:54;;;;;;;;;;;256.60;2252.80;;;;;;4939057;29;19939;-75
2024/02/20 00:06:20;;;;;;;;;;;256.60;2252.80;;;;;;4939810;29;19961;-75
2024/02/20 00:08:46;;;;;;;;;;;256.70;2252.80;;;;;;4939732;29;19915;-76
2024/02/20 00:11:11;;;;;;;;;;;256.80;2252.80;;;;;;4939722;29;19910;-75
2024/02/20 00:13:37;;;;;;;;;;;256.80;2252.80;;;;;;4921981;29;19914;-77
2024/02/20 00:16:03;;;;;;;;;;;256.70;2252.80;;;;;;4938020;29;19907;-75
2024/02/20 00:18:28;;;;;;;;;;;256.60;2252.80;;;;;;4939532;29;20328;-75
2024/02/20 00:20:54;;;;;;;;;;;256.60;2252.80;;;;;;4939506;29;20468;-75
2024/02/20 00:23:20;;;;;;;;;;;256.50;2252.80;;;;;;4939346;29;19907;-77
2024/02/20 00:25:46;;;;;;;;;;;256.50;2252.80;;;;;;4939479;29;19917;-78
2024/02/20 00:28:12;;;;;;;;;;;256.40;2252.80;;;;;;4935019;29;20009;-76
2024/02/20 00:30:38;;;;;;;;;;;256.40;2252.80;;;;;;4934568;29;20415;-77
2024/02/20 00:33:03;;;;;;;;;;;256.40;2252.80;;;;;;4939066;29;19911;-75
2024/02/20 00:35:29;;;;;;;;;;;256.40;2252.80;;;;;;4939083;29;20320;-80
2024/02/20 00:37:56;;;;;;;;;;;256.40;2252.80;;;;;;4939336;29;19914;-77
2024/02/20 00:40:21;;;;;;;;;;;256.40;2252.80;;;;;;4938016;29;19954;-76
2024/02/20 00:42:48;;;;;;;;;;;256.30;2252.80;;;;;;4939107;29;19911;-77
2024/02/20 00:45:14;;;;;;;;;;;256.30;2252.80;;;;;;4938801;29;20005;-77
2024/02/20 00:47:39;;;;;;;;;;;256.30;2252.80;;;;;;4934619;29;20037;-76
2024/02/20 00:50:05;;;;;;;;;;;256.20;2252.80;;;;;;4934230;29;19910;-75
2024/02/20 00:52:31;;;;;;;;;;;256.30;1996.80;;;;;;4938937;29;19907;-75
2024/02/20 00:54:56;;;;;;;;;;;256.30;1894.40;;;;;;4938985;29;19907;-75
2024/02/20 00:57:22;;;;;;;;;;;256.30;2048.00;;;;;;4938909;29;19907;-77
2024/02/20 00:59:47;;;;;;;;;;;256.30;2124.80;;;;;;4938610;29;19929;-74
2024/02/20 01:02:13;;;;;;;;;;;256.50;2252.80;;;;;;4938872;29;19965;-75
2024/02/20 01:04:39;;;;;;;;;;;256.50;2252.80;;;;;;4938788;29;19907;-76
2024/02/20 01:07:05;;;;;;;;;;;281.90;2278.40;;;;;;4938789;29;19970;-77
2024/02/20 01:09:30;;;;;;;;;;;256.50;2252.80;;;;;;4938462;29;19906;-81
2024/02/20 01:11:56;;;;;;;;;;;256.40;2252.80;;;;;;4938488;29;19919;-75
2024/02/20 01:14:22;;;;;;;;;;;256.50;2252.80;;;;;;4938776;29;19911;-75
2024/02/20 01:16:47;;;;;;;;;;;256.50;2252.80;;;;;;4938438;29;20387;-76
2024/02/20 01:19:13;;;;;;;;;;;256.40;1868.80;;;;;;4938657;29;20361;-75
2024/02/20 01:21:39;;;;;;;;;;;256.30;2048.00;;;;;;4938338;29;19925;-76
2024/02/20 01:24:04;;;;;;;;;;;256.20;2201.60;;;;;;4938303;29;19907;-76
2024/02/20 01:26:31;;;;;;;;;;;256.30;2252.80;;;;;;4937098;29;19949;-76
2024/02/20 01:28:57;;;;;;;;;;;256.30;2252.80;;;;;;4938120;29;19921;-75
2024/02/20 01:31:24;;;;;;;;;;;256.30;2201.60;;;;;;4938432;29;19961;-78
2024/02/20 01:33:50;;;;;;;;;;;256.30;1945.60;;;;;;4937022;29;20404;-77
2024/02/20 01:36:16;;;;;;;;;;;256.30;2252.80;;;;;;4938454;29;19988;-75
2024/02/20 01:38:41;;;;;;;;;;;256.30;1868.80;;;;;;4937987;29;19914;-76
2024/02/20 01:41:07;;;;;;;;;;;256.30;2252.80;;;;;;4938067;29;19936;-82
2024/02/20 01:43:35;;;;;;;;;;;256.30;2252.80;;;;;;4938072;29;19911;-75
2024/02/20 01:46:01;;;;;;;;;;;256.20;2252.80;;;;;;4933646;29;19993;-75
2024/02/20 01:48:27;;;;;;;;;;;256.10;2252.80;;;;;;4933448;29;19915;-78
2024/02/20 01:50:52;;;;;;;;;;;256.20;2252.80;;;;;;4937999;29;19914;-75
2024/02/20 01:53:18;;;;;;;;;;;256.20;2252.80;;;;;;4937845;29;19954;-75
2024/02/20 01:55:44;;;;;;;;;;;256.20;2252.80;;;;;;4937978;29;19953;-78
2024/02/20 01:58:09;;;;;;;;;;;256.20;2252.80;;;;;;4936282;29;19907;-76
2024/02/20 02:00:35;;;;;;;;;;;256.20;2252.80;;;;;;4937981;29;19911;-78
2024/02/20 02:03:01;;;;;;;;;;;256.20;2252.80;;;;;;4924927;29;19910;-81
2024/02/20 02:05:27;;;;;;;;;;;256.20;2252.80;;;;;;4933275;29;19907;-77
2024/02/20 02:07:54;;;;;;;;;;;256.10;2252.80;;;;;;4933127;29;19918;-81
2024/02/20 02:10:19;;;;;;;;;;;256.00;2252.80;;;;;;4937085;29;19913;-76
2024/02/20 02:12:45;;;;;;;;;;;231.30;2252.80;;;;;;4937063;29;19911;-76
2024/02/20 02:15:10;;;;;;;;;;;231.30;2022.40;;;;;;4937606;29;20328;-76
2024/02/20 02:17:36;;;;;;;;;;;231.20;2252.80;;;;;;4937366;29;19907;-75
2024/02/20 02:20:05;;;;;;;;;;;231.20;2252.80;;;;;;4937334;29;19919;-76
2024/02/20 02:22:31;;;;;;;;;;;231.20;2252.80;;;;;;4937535;29;20272;-75
2024/02/20 02:24:56;;;;;;;;;;;231.20;2252.80;;;;;;4937209;29;19997;-81
2024/02/20 02:27:22;;;;;;;;;;;231.20;2252.80;;;;;;4936969;29;20319;-76
2024/02/20 02:29:48;;;;;;;;;;;231.20;2252.80;;;;;;4937426;29;19907;-76
2024/02/20 02:32:13;;;;;;;;;;;231.20;2252.80;;;;;;4937204;29;19906;-75
2024/02/20 02:34:39;;;;;;;;;;;231.20;2252.80;;;;;;4937086;29;19913;-75
2024/02/20 02:37:06;;;;;;;;;;;231.20;2252.80;;;;;;4937045;29;19907;-76
2024/02/20 02:39:32;;;;;;;;;;;231.10;2252.80;;;;;;4937329;29;19906;-80
2024/02/20 02:41:57;;;;;;;;;;;231.10;2252.80;;;;;;4936739;29;20341;-76
2024/02/20 02:44:23;;;;;;;;;;;231.10;2252.80;;;;;;4937124;29;19911;-75
2024/02/20 02:46:49;;;;;;;;;;;231.10;2252.80;;;;;;4934367;29;19907;-81
2024/02/20 02:49:14;;;;;;;;;;;231.00;2252.80;;;;;;4936835;29;19907;-75
2024/02/20 02:51:40;;;;;;;;;;;231.00;2252.80;;;;;;4936763;29;19907;-75
2024/02/20 02:54:06;;;;;;;;;;;231.00;2252.80;;;;;;4936867;29;19914;-75
2024/02/20 02:56:31;;;;;;;;;;;231.00;2252.80;;;;;;4936552;29;19907;-75
2024/02/20 02:58:59;;;;;;;;;;;231.00;2252.80;;;;;;4937014;29;19962;-76
2024/02/20 03:01:25;;;;;;;;;;;231.00;2252.80;;;;;;4923996;29;19907;-76
2024/02/20 03:03:51;;;;;;;;;;;231.00;2252.80;;;;;;4935193;29;19910;-75
2024/02/20 03:06:17;;;;;;;;;;;230.90;2252.80;;;;;;4936602;29;19914;-76
2024/02/20 03:08:45;;;;;;;;;;;230.90;2252.80;;;;;;4932070;29;20297;-75
2024/02/20 03:11:11;;;;;;;;;;;230.90;2252.80;;;;;;4930236;29;19911;-75
2024/02/20 03:13:36;;;;;;;;;;;230.80;2252.80;;;;;;4925944;29;19965;-75
2024/02/20 03:16:05;;;;;;;;;;;230.80;2252.80;;;;;;4936643;29;20253;-75
2024/02/20 03:18:32;;;;;;;;;;;230.80;2252.80;;;;;;4936549;29;19954;-82
2024/02/20 03:21:00;;;;;;;;;;;230.80;2252.80;;;;;;4936169;29;19919;-75
2024/02/20 03:23:27;;;;;;;;;;;230.70;2252.80;;;;;;4936511;29;20364;-75
2024/02/20 03:25:53;;;;;;;;;;;230.70;2252.80;;;;;;4936258;29;19994;-75
2024/02/20 03:28:19;;;;;;;;;;;230.70;2252.80;;;;;;4936349;29;20356;-75
2024/02/20 03:30:44;;;;;;;;;;;230.60;2252.80;;;;;;4932644;29;19921;-75
2024/02/20 03:33:10;;;;;;;;;;;230.60;2252.80;;;;;;4932033;29;19907;-75
2024/02/20 03:35:36;;;;;;;;;;;230.60;2252.80;;;;;;4935009;29;19910;-75
2024/02/20 03:38:02;;;;;;;;;;;230.60;2252.80;;;;;;4933384;29;19913;-80
2024/02/20 03:40:27;;;;;;;;;;;230.60;2252.80;;;;;;4921711;29;19911;-75
2024/02/20 03:42:53;;;;;;;;;;;230.60;2252.80;;;;;;4934436;29;20388;-75
2024/02/20 03:45:19;;;;;;;;;;;230.50;2252.80;;;;;;4933612;29;19958;-75
2024/02/20 03:47:45;;;;;;;;;;;230.50;2252.80;;;;;;4933315;29;19966;-75
2024/02/20 03:50:10;;;;;;;;;;;230.50;2252.80;;;;;;4933685;29;19957;-75
2024/02/20 03:52:36;;;;;;;;;;;230.50;2252.80;;;;;;4935721;29;20327;-75
2024/02/20 03:55:02;;;;;;;;;;;230.40;2252.80;;;;;;4935338;29;19911;-76
2024/02/20 03:57:27;;;;;;;;;;;230.40;2252.80;;;;;;4935434;29;19913;-75
2024/02/20 03:59:56;;;;;;;;;;;230.40;2252.80;;;;;;4935966;29;19962;-74
2024/02/20 04:02:22;;;;;;;;;;;230.40;2252.80;;;;;;4935646;29;19907;-75
2024/02/20 04:04:48;;;;;;;;;;;205.70;2252.80;;;;;;4935496;29;19914;-75
2024/02/20 04:07:16;;;;;;;;;;;230.40;2252.80;;;;;;4935290;29;19922;-83
2024/02/20 04:09:41;;;;;;;;;;;205.70;2252.80;;;;;;4936207;29;19910;-76
2024/02/20 04:12:07;;;;;;;;;;;205.70;2252.80;;;;;;4931460;29;19959;-75
2024/02/20 04:14:33;;;;;;;;;;;205.70;2252.80;;;;;;4935493;29;19911;-75
2024/02/20 04:16:58;;;;;;;;;;;205.60;2252.80;;;;;;4931031;29;19907;-75
2024/02/20 04:19:24;;;;;;;;;;;205.60;2124.80;;;;;;4932836;29;20364;-75
2024/02/20 04:21:49;;;;;;;;;;;205.50;2073.60;;;;;;4934026;29;19997;-76
2024/02/20 04:24:15;;;;;;;;;;;205.50;2227.20;;;;;;4935139;29;19911;-81
2024/02/20 04:26:41;;;;;;;;;;;205.40;2048.00;;;;;;4922207;29;19993;-76
2024/02/20 04:29:06;;;;;;;;;;;205.50;2252.80;;;;;;4927980;29;19907;-75
2024/02/20 04:31:32;;;;;;;;;;;205.50;2252.80;;;;;;4935285;29;20273;-76
2024/02/20 04:33:58;;;;;;;;;;;205.40;2252.80;;;;;;4928918;29;20280;-75
2024/02/20 04:36:23;;;;;;;;;;;205.50;2252.80;;;;;;4927828;29;19914;-75
2024/02/20 04:38:56;;;;;;;;;;;205.50;2252.80;;;;;;4928566;29;19918;-76
2024/02/20 04:41:24;;;;;;;;;;;205.50;2252.80;;;;;;4938701;29;19953;-76
2024/02/20 04:43:50;;;;;;;;;;;205.50;2150.40;;;;;;4929903;29;19942;-76
2024/02/20 04:46:16;;;;;;;;;;;205.50;2252.80;;;;;;4932488;29;20002;-77
2024/02/20 04:48:42;;;;;;;;;;;205.60;2252.80;;;;;;4936502;29;19922;-78
2024/02/20 04:51:07;;;;;;;;;;;205.60;2252.80;;;;;;4947001;28;19911;-76
2024/02/20 04:53:33;;;;;;;;;;;205.60;2227.20;;;;;;4939175;29;19945;-75
2024/02/20 04:55:59;;;;;;;;;;;205.70;2099.20;;;;;;4929229;29;20369;-76
2024/02/20 04:58:24;;;;;;;;;;;230.40;2252.80;;;;;;4934322;29;19907;-75
2024/02/20 05:00:50;;;;;;;;;;;205.70;2252.80;;;;;;4932071;29;19907;-77
2024/02/20 05:03:16;;;;;;;;;;;205.70;2252.80;;;;;;4938888;29;19911;-76
2024/02/20 05:05:42;;;;;;;;;;;205.70;2252.80;;;;;;4934316;29;19957;-75
2024/02/20 05:08:07;;;;;;;;;;;205.70;2252.80;;;;;;4938217;29;19966;-76
2024/02/20 05:10:33;;;;;;;;;;;205.70;2252.80;;;;;;4939133;29;19907;-75
2024/02/20 05:12:59;;;;;;;;;;;205.70;2252.80;;;;;;4938621;29;19915;-75
2024/02/20 05:15:24;;;;;;;;;;;205.70;2252.80;;;;;;4938952;29;19965;-80
2024/02/20 05:17:50;;;;;;;;;;;205.70;2252.80;;;;;;4938505;29;19930;-76
2024/02/20 05:20:15;;;;;;;;;;;205.70;2252.80;;;;;;4938490;29;19929;-76
2024/02/20 05:22:41;;;;;;;;;;;205.70;2252.80;;;;;;4938616;29;19914;-76
2024/02/20 05:25:07;;;;;;;;;;;205.60;2252.80;;;;;;4938585;29;19907;-75
2024/02/20 05:27:33;;;;;;;;;;;205.60;2252.80;;;;;;4937156;29;20561;-83
2024/02/20 05:29:58;;;;;;;;;;;205.60;2252.80;;;;;;4936934;29;20273;-75
2024/02/20 05:32:24;;;;;;;;;;;205.60;2252.80;;;;;;4925771;29;19973;-76
2024/02/20 05:34:49;;;;;;;;;;;205.60;2252.80;;;;;;4933931;29;20357;-76
2024/02/20 05:37:15;;;;;;;;;;;205.50;2252.80;;;;;;4921423;29;19914;-76
2024/02/20 05:39:40;;;;;;;;;;;205.60;2252.80;;;;;;4938494;29;19907;-77
2024/02/20 05:42:07;;;;;;;;;;;205.60;2252.80;;;;;;4935980;29;20014;-75
2024/02/20 05:44:32;;;;;;;;;;;205.50;2252.80;;;;;;4936928;29;20317;-79
2024/02/20 05:46:58;;;;;;;;;;;205.50;2252.80;;;;;;4936988;29;19911;-81
2024/02/20 05:49:23;;;;;;;;;;;205.50;2252.80;;;;;;4936702;29;20017;-77
2024/02/20 05:51:49;;;;;;;;;;;205.40;2252.80;;;;;;4936315;29;19910;-75
2024/02/20 05:54:15;;;;;;;;;;;205.40;2252.80;;;;;;4936651;29;20533;-75
2024/02/20 05:56:43;;;;;;;;;;;205.50;2252.80;;;;;;4940226;29;19950;-75
2024/02/20 05:59:08;;;;;;;;;;;205.50;2252.80;;;;;;4947823;28;19907;-75
2024/02/20 06:01:34;;;;;;;;;;;205.50;2252.80;;;;;;4937602;29;19943;-75
2024/02/20 06:04:04;;;;;;;;;;;205.50;2252.80;;;;;;4937490;29;19930;-75
2024/02/20 06:06:30;;;;;;;;;;;205.50;2252.80;;;;;;4937478;29;20320;-75
2024/02/20 06:08:56;;;;;;;;;;;205.50;2252.80;;;;;;4937593;29;19919;-75
2024/02/20 06:11:22;;;;;;;;;;;205.60;2252.80;;;;;;4937419;29;20341;-75
2024/02/20 06:13:49;;;;;;;;;;;205.60;2252.80;;;;;;4937371;29;19911;-75
2024/02/20 06:16:14;;;;;;;;;;;205.60;2252.80;;;;;;4937277;29;19961;-75
2024/02/20 06:18:40;;;;;;;;;;;205.60;2252.80;;;;;;4937586;29;19907;-75
2024/02/20 06:21:08;;;;;;;;;;;205.70;2252.80;;;;;;4937023;29;19945;-81
2024/02/20 06:23:37;;;;;;;;;;;205.70;2252.80;;;;;;4933200;29;19907;-76
2024/02/20 06:26:03;;;;;;;;;;;205.70;2252.80;;;;;;4935516;29;19907;-77
2024/02/20 06:28:29;;;;;;;;;;;205.70;2252.80;;;;;;4937321;29;19914;-75
2024/02/20 06:30:55;;;;;;;;;;;205.70;2252.80;;;;;;4937597;29;19907;-76
2024/02/20 06:33:21;;;;;;;;;;;230.40;2252.80;;;;;;4937153;29;20272;-76
2024/02/20 06:35:46;;;;;;;;;;;230.40;2252.80;;;;;;4935108;29;19917;-77
2024/02/20 06:38:12;;;;;;;;;;;230.40;2252.80;;;;;;4932764;29;20269;-77
2024/02/20 06:40:37;;;;;;;;;;;230.40;2252.80;;;;;;4934544;29;19913;-77
2024/02/20 06:43:03;;;;;;;;;;;230.40;2252.80;;;;;;4937153;29;20428;-80
2024/02/20 06:45:29;;;;;;;;;;;230.40;2252.80;;;;;;4936803;29;20357;-77
2024/02/20 06:47:55;;;;;;;;;;;230.40;2252.80;;;;;;4936312;29;19914;-78
2024/02/20 06:50:20;;;;;;;;;;;230.40;2252.80;;;;;;4936217;29;19913;-77
2024/02/20 06:52:46;;;;;;;;;;;230.40;2252.80;;;;;;4937003;29;20338;-75
2024/02/20 06:55:13;;;;;;;;;;;230.40;2252.80;;;;;;4935365;29;19906;-75
2024/02/20 06:57:39;;;;;;;;;;;230.40;2252.80;;;;;;4932312;29;19907;-76
2024/02/20 07:00:11;;;;;;;;;;;230.40;2252.80;;;;;;4935000;29;20001;-73
2024/02/20 07:02:43;;;;;;;;;;;230.40;2252.80;;;;;;4936828;29;20393;-72
2024/02/20 07:05:10;;;;;;;;;;;230.40;2252.80;;;;;;4936441;29;19942;-73
2024/02/20 07:07:36;;;;;;;;;;;230.40;2252.80;;;;;;4936524;29;19926;-73
2024/02/20 07:10:03;;;;;;;;;;;230.50;2252.80;;;;;;4936489;29;20273;-73
2024/02/20 07:12:29;;;;;;;;;;;230.50;2252.80;;;;;;4936454;29;19911;-72
2024/02/20 07:14:54;;;;;;;;;;;230.60;2252.80;;;;;;4936403;29;19918;-72
2024/02/20 07:17:20;;;;;;;;;;;230.60;2252.80;;;;;;4936483;29;19950;-72
2024/02/20 07:19:46;;;;;;;;;;;230.60;2252.80;;;;;;4936136;29;19922;-73
2024/02/20 07:22:11;;;;;;;;;;;230.60;2252.80;;;;;;4936267;29;19907;-72
2024/02/20 07:24:37;;;;;;;;;;;230.70;2252.80;;;;;;4929319;29;19963;-73
2024/02/20 07:27:03;;;;;;;;;;;230.70;2252.80;;;;;;4925366;29;19998;-73
2024/02/20 07:29:28;;;;;;;;;;;230.80;2252.80;;;;;;4919454;29;19954;-72
2024/02/20 07:31:57;;;;;;;;;;;230.80;2252.80;;;;;;4936304;29;20340;-74
2024/02/20 07:34:22;;;;;;;;;;;230.90;2252.80;;;;;;4915988;29;20049;-74
2024/02/20 07:36:48;;;;;;;;;;;231.00;2252.80;;;;;;4929254;29;19938;-73
2024/02/20 07:39:14;;;;;;;;;;;231.00;2252.80;;;;;;4931485;29;19907;-78
2024/02/20 07:41:40;;;;;;;;;;;231.10;2252.80;;;;;;4929507;29;19910;-73
2024/02/20 07:44:05;;;;;;;;;;;231.20;2252.80;;;;;;4932123;29;19914;-78
2024/02/20 07:46:32;;;;;;;;;;;231.20;2252.80;;;;;;4924930;29;19907;-76
2024/02/20 07:48:58;;;;;;;;;;;231.30;2252.80;;;;;;4935666;29;19961;-78
2024/02/20 07:51:24;;;;;;;;;;;256.00;2252.80;;;;;;4936556;29;19958;-74
2024/02/20 07:53:50;;;;;;;;;;;256.00;2252.80;;;;;;4936232;29;19914;-75
2024/02/20 07:56:22;;;;;;;;;;;256.10;2252.80;;;;;;4936288;29;20095;-75
2024/02/20 07:58:48;;;;;;;;;;;256.10;2252.80;;;;;;4936230;29;19907;-74
2024/02/20 08:01:13;;;;;;;;;;;256.20;2252.80;;;;;;4936071;29;19913;-72
2024/02/20 08:03:39;;;;;;;;;;;256.20;2252.80;;;;;;4918948;29;19934;-72
2024/02/20 08:06:05;;;;;;;;;;;256.30;2252.80;;;;;;4935658;29;19958;-73
2024/02/20 08:08:30;;;;;;;;;;;256.40;2252.80;;;;;;4936089;29;19922;-73
2024/02/20 08:10:56;;;;;;;;;;;256.50;2252.80;;;;;;4939573;29;19977;-74
2024/02/20 08:13:23;;;;;;;;;;;256.60;2252.80;;;;;;4940212;29;19911;-74
2024/02/20 08:15:48;;;;;;;;;;;256.70;2252.80;;;;;;4939603;29;19946;-74
2024/02/20 08:18:14;;;;;;;;;;;256.70;2252.80;;;;;;4935353;29;19961;-73
2024/02/20 08:20:39;;;;;;;;;;;256.90;2252.80;;;;;;4933577;29;19918;-74
2024/02/20 08:23:05;;;;;;;;;;;256.90;2252.80;;;;;;4909780;29;19966;-77
2024/02/20 08:25:31;;;;;;;;;;;281.60;2278.40;;;;;;4935393;29;19907;-76
2024/02/20 08:27:56;;;;;;;;;;;281.70;2278.40;;;;;;4935142;29;19921;-79
2024/02/20 08:30:23;;;;;;;;;;;281.80;2278.40;;;;;;4922389;29;20245;-78
2024/02/20 08:32:49;;;;;;;;;;;281.80;2278.40;;;;;;4939200;29;19973;-77
2024/02/20 08:35:15;;;;;;;;;;;281.90;2278.40;;;;;;4938044;29;20308;-79
2024/02/20 08:37:40;;;;;;;;;;;281.90;2278.40;;;;;;4934593;29;19911;-78
2024/02/20 08:40:06;;;;;;;;;;;282.00;2278.40;;;;;;4931238;29;20009;-78
2024/02/20 08:42:32;;;;;;;;;;;282.40;2278.40;;;;;;4925261;29;19917;-80
2024/02/20 08:44:58;;;;;;;;;;;282.20;2278.40;;;;;;4934943;29;20416;-79
2024/02/20 08:47:23;;;;;;;;;;;282.20;2278.40;;;;;;4938556;29;19919;-79
2024/02/20 08:49:50;;;;;;;;;;;282.20;2278.40;;;;;;4937791;29;20369;-79
2024/02/20 08:52:16;;;;;;;;;;;282.20;2278.40;;;;;;4939149;29;19910;-76
2024/02/20 08:54:42;;;;;;;;;;;282.20;2278.40;;;;;;4939110;29;20264;-76
2024/02/20 08:57:08;;;;;;;;;;;282.10;2278.40;;;;;;4938676;29;19911;-76
2024/02/20 08:59:33;;;;;;;;;;;282.20;2278.40;;;;;;4938898;29;19906;-77
2024/02/20 09:02:00;;;;;;;;;;;282.30;2278.40;;;;;;4935029;29;19950;-75
2024/02/20 09:04:26;;;;;;;;;;;282.20;2278.40;;;;;;4938684;29;19907;-78
2024/02/20 09:06:52;;;;;;;;;;;282.20;2278.40;;;;;;4934160;29;20274;-76
2024/02/20 09:09:18;;;;;;;;;;;282.10;2278.40;;;;;;4931821;29;19907;-76
2024/02/20 09:11:44;;;;;;;;;;;282.10;2278.40;;;;;;4938374;29;19957;-75
2024/02/20 09:14:10;;;;;;;;;;;282.20;2278.40;;;;;;4938618;29;19915;-77
2024/02/20 09:16:35;;;;;;;;;;;282.20;2278.40;;;;;;4938252;29;19923;-76
2024/02/20 09:19:02;;;;;;;;;;;282.20;2278.40;;;;;;4938463;29;19906;-77
2024/02/20 09:21:27;;;;;;;;;;;282.20;2278.40;;;;;;4938090;29;19919;-77
2024/02/20 09:23:53;;;;;;;;;;;282.10;2278.40;;;;;;4936797;29;20497;-76
2024/02/20 09:26:20;;;;;;;;;;;282.20;2278.40;;;;;;4920959;29;20001;-77
2024/02/20 09:28:46;;;;;;;;;;;282.20;2278.40;;;;;;4933952;29;19923;-76
2024/02/20 09:31:12;;;;;;;;;;;282.20;2278.40;;;;;;4937948;29;19907;-76
2024/02/20 09:33:37;;;;;;;;;;;282.20;2278.40;;;;;;4933792;29;19966;-74
2024/02/20 09:36:03;;;;;;;;;;;282.20;2278.40;;;;;;4937586;29;20268;-74
2024/02/20 09:38:28;;;;;;;;;;;282.30;2278.40;;;;;;4933609;29;19907;-74
2024/02/20 09:40:54;;;;;;;;;;;282.50;2278.40;;;;;;4937175;29;19919;-77
2024/02/20 09:43:20;;;;;;;;;;;282.50;2278.40;;;;;;4934009;29;19918;-76
2024/02/20 09:45:49;;;;;;;;;;;307.20;2304.00;;;;;;4937307;29;19911;-77
2024/02/20 09:48:15;;;;;;;;;;;307.20;2304.00;;;;;;4927487;29;19957;-75
2024/02/20 09:50:42;;;;;;;;;;;307.20;2304.00;;;;;;4920899;29;19954;-76
2024/02/20 09:53:09;;;;;;;;;;;307.30;2304.00;;;;;;4937861;29;19907;-73
2024/02/20 09:55:34;;;;;;;;;;;307.30;2304.00;;;;;;4937999;29;19914;-76
2024/02/20 09:58:01;;;;;;;;;;;307.30;2304.00;;;;;;4937815;29;19907;-75
2024/02/20 10:00:27;;;;;;;;;;;307.30;2304.00;;;;;;4937822;29;19935;-75
2024/02/20 10:02:52;;;;;;;;;;;307.30;2304.00;;;;;;4937736;29;20273;-75
2024/02/20 10:05:18;;;;;;;;;;;307.30;2304.00;;;;;;4937422;29;19907;-74
2024/02/20 10:07:44;;;;;;;;;;;307.30;2304.00;;;;;;4937481;29;19915;-79
2024/02/20 10:10:11;;;;;;;;;;;308.00;2304.00;;;;;;4925200;29;19914;-75
2024/02/20 10:12:39;;;;;;;;;;;307.40;2304.00;;;;;;4937311;29;20368;-76
2024/02/20 10:15:07;;;;;;;;;;;307.40;2304.00;;;;;;4936262;29;19910;-76
2024/02/20 10:17:33;;;;;;;;;;;307.50;2304.00;;;;;;4937878;29;19907;-76
2024/02/20 10:20:05;;;;;;;;;;;307.50;2304.00;;;;;;4936772;29;19926;-76
2024/02/20 10:22:31;;;;;;;;;;;307.60;2304.00;;;;;;4937143;29;19914;-75
2024/02/20 10:25:07;;;;;;;;;;;307.70;2304.00;;;;;;4937086;29;19907;-74
2024/02/20 10:27:34;;;;;;;;;;;307.70;2304.00;;;;;;4937050;29;19915;-76
2024/02/20 10:30:01;;;;;;;;;;;307.80;2304.00;;;;;;4937280;29;19906;-76
2024/02/20 10:32:27;;;;;;;;;;;307.90;2304.00;;;;;;4936723;29;20288;-76
2024/02/20 10:35:03;;;;;;;;;;;307.90;2304.00;;;;;;4937144;29;19954;-76
2024/02/20 10:37:29;;;;;;;;;;;308.00;2304.00;;;;;;4936792;29;19907;-75
2024/02/20 10:40:04;;;;;;;;;;;308.00;2304.00;;;;;;4932811;29;19997;-76
2024/02/20 10:42:32;;;;;;;;;;;332.80;2329.60;;;;;;4941249;29;19910;-79
2024/02/20 10:44:58;;;;;;;;;;;332.90;2329.60;;;;;;4942749;29;19910;-76
2024/02/20 10:47:25;;;;;;;;;;;333.00;2329.60;;;;;;4932259;29;19915;-75
2024/02/20 10:49:52;;;;;;;;;;;333.20;2329.60;;;;;;4926369;29;19907;-75
2024/02/20 10:52:17;;;;;;;;;;;333.30;2329.60;;;;;;4936610;29;19914;-76
2024/02/20 10:54:43;;;;;;;;;;;333.40;2329.60;;;;;;4937031;29;19907;-79
2024/02/20 10:57:10;;;;;;;;;;;333.60;2329.60;;;;;;4936886;29;20329;-78
2024/02/20 10:59:35;;;;;;;;;;;358.40;2329.60;;;;;;4926150;29;19915;-75
2024/02/20 11:02:01;;;;;;;;;;;358.50;2329.60;;;;;;4936719;29;19911;-79
2024/02/20 11:04:27;;;;;;;;;;;358.70;2329.60;;;;;;4937147;29;20001;-77
2024/02/20 11:06:55;;;;;;;;;;;358.80;2329.60;;;;;;4936773;29;19906;-76
2024/02/20 11:09:21;;;;;;;;;;;359.00;2329.60;;;;;;4936400;29;20262;-75
2024/02/20 11:11:46;;;;;;;;;;;359.20;2329.60;;;;;;4936740;29;19918;-76
2024/02/20 11:14:23;;;;;;;;;;;359.30;2329.60;;;;;;4937055;29;19911;-78
2024/02/20 11:16:48;;;;;;;;;;;384.10;2329.60;;;;;;4936561;29;20316;-79
2024/02/20 11:19:22;;;;;;;;;;;384.20;2329.60;;;;;;4936444;29;20353;-79
2024/02/20 11:21:47;;;;;;;;;;;384.20;2329.60;;;;;;4936628;29;19962;-77
2024/02/20 11:24:16;;;;;;;;;;;384.20;2329.60;;;;;;4936341;29;19946;-79
2024/02/20 11:26:47;;;;;;;;;;;384.40;2329.60;;;;;;4936576;29;19906;-79
2024/02/20 11:29:14;;;;;;;;;;;384.30;2329.60;;;;;;4936492;29;19962;-79
2024/02/20 11:31:41;;;;;;;;;;;384.40;2329.60;;;;;;4936536;29;20391;-75
2024/02/20 11:34:17;;;;;;;;;;;384.60;2329.60;;;;;;4936105;29;19910;-76
2024/02/20 11:36:43;;;;;;;;;;;384.50;2329.60;;;;;;4932133;29;19914;-75
2024/02/20 11:39:13;;;;;;;;;;;384.60;2329.60;;;;;;4934462;29;20257;-75
2024/02/20 11:41:39;;;;;;;;;;;384.60;2329.60;;;;;;4936194;29;19911;-76
2024/02/20 11:50:01;;;;;;;;;;;384.50;2329.60;;;;;;5025149;23;20390;-79
2024/02/20 11:52:27;;;;;;;;;;;384.60;2329.60;;;;;;4965145;28;20384;-78
2024/02/20 11:54:53;;;;;;;;;;;384.50;2329.60;;;;;;4977537;28;19912;-78
2024/02/20 11:57:18;;;;;;;;;;;384.30;2329.60;;;;;;4977654;28;19913;-77
2024/02/20 11:59:44;;;;;;;;;;;384.10;2329.60;;;;;;4977676;28;20356;-79
2024/02/20 12:02:09;;;;;;;;;;;384.00;2329.60;;;;;;4977267;28;19910;-78
2024/02/20 12:04:35;;;;;;;;;;;359.20;2329.60;;;;;;4977380;28;19910;-78
2024/02/20 12:07:09;;;;;;;;;;;359.10;2329.60;;;;;;4977025;28;19929;-78
2024/02/20 12:09:34;;;;;;;;;;;359.00;2329.60;;;;;;4996598;28;19928;-79
2024/02/20 12:12:00;;;;;;;;;;;359.10;2329.60;;;;;;4996485;28;20363;-75
2024/02/20 12:14:25;;;;;;;;;;;359.00;2329.60;;;;;;4996528;28;19906;-76
2024/02/20 12:16:56;;;;;;;;;;;359.20;2329.60;;;;;;4979478;28;19967;-76
2024/02/20 12:19:22;;;;;;;;;;;384.00;2329.60;;;;;;4996230;28;19909;-75
2024/02/20 12:21:48;;;;;;;;;;;384.00;2329.60;;;;;;4995382;28;19910;-75
2024/02/20 12:24:21;;;;;;;;;;;384.40;2329.60;;;;;;4995725;28;20363;-77
2024/02/20 12:26:49;;;;;;;;;;;384.30;2329.60;;;;;;4978874;28;19956;-79
2024/02/20 12:29:14;;;;;;;;;;;384.10;2329.60;;;;;;4978658;28;19914;-80
2024/02/20 12:31:40;;;;;;;;;;;359.30;2329.60;;;;;;4996145;28;19912;-75
2024/02/20 12:34:06;;;;;;;;;;;359.10;2329.60;;;;;;4996136;28;19906;-79
2024/02/20 12:36:32;;;;;;;;;;;358.90;2329.60;;;;;;4996201;28;19906;-78
2024/02/20 12:38:59;;;;;;;;;;;358.80;2329.60;;;;;;4995999;28;19912;-75
2024/02/20 12:41:24;;;;;;;;;;;358.80;2329.60;;;;;;4994877;28;19912;-78
2024/02/20 12:43:50;;;;;;;;;;;358.80;2329.60;;;;;;4996465;28;19993;-76
2024/02/20 12:46:16;;;;;;;;;;;358.80;2329.60;;;;;;4995897;28;19909;-76
2024/02/20 12:48:41;;;;;;;;;;;358.80;2329.60;;;;;;4994746;28;19943;-76
2024/02/20 12:51:07;;;;;;;;;;;358.90;2329.60;;;;;;4994739;28;19949;-79
2024/02/20 12:53:33;;;;;;;;;;;358.90;2329.60;;;;;;4978323;28;19913;-78
2024/02/20 12:55:58;;;;;;;;;;;359.00;2329.60;;;;;;4978100;28;19974;-78
2024/02/20 12:58:26;;;;;;;;;;;359.10;2329.60;;;;;;4978552;28;19906;-77
2024/02/20 13:00:52;;;;;;;;;;;384.00;2329.60;;;;;;4994875;28;19905;-77
2024/02/20 13:03:17;;;;;;;;;;;384.40;2329.60;;;;;;4977876;28;19971;-77
2024/02/20 13:05:44;;;;;;;;;;;384.50;2329.60;;;;;;4995392;28;20421;-80
2024/02/20 13:08:11;;;;;;;;;;;384.20;2329.60;;;;;;4978251;28;19917;-77
2024/02/20 13:10:36;;;;;;;;;;;384.10;2329.60;;;;;;5008531;28;19959;-80
2024/02/20 13:13:03;;;;;;;;;;;359.30;2329.60;;;;;;4995315;28;19972;-78
2024/02/20 13:15:28;;;;;;;;;;;359.20;2329.60;;;;;;4990580;28;19906;-79
2024/02/20 13:17:55;;;;;;;;;;;384.00;2329.60;;;;;;4995188;28;19918;-80
2024/02/20 13:20:29;;;;;;;;;;;359.20;2329.60;;;;;;4978305;28;19906;-79
2024/02/20 13:22:54;;;;;;;;;;;359.20;2329.60;;;;;;4994174;28;19909;-78
2024/02/20 13:25:20;;;;;;;;;;;384.00;2329.60;;;;;;4977802;28;19905;-78
2024/02/20 13:27:47;;;;;;;;;;;384.00;2329.60;;;;;;4995001;28;19984;-78
2024/02/20 13:30:14;;;;;;;;;;;384.20;2329.60;;;;;;4977757;28;19905;-79
2024/02/20 13:32:41;;;;;;;;;;;384.30;2329.60;;;;;;4993810;28;19953;-77
2024/02/20 13:35:07;;;;;;;;;;;384.40;2329.60;;;;;;4977893;28;19913;-81
2024/02/20 13:37:33;;;;;;;;;;;384.50;2329.60;;;;;;4994953;28;20000;-81
2024/02/20 13:39:58;;;;;;;;;;;384.50;2329.60;;;;;;4995586;28;20381;-78
2024/02/20 13:42:24;;;;;;;;;;;384.50;2329.60;;;;;;4994993;28;19906;-77